Terminal Aerodrome Forecast
Issued by NWS

Home | Current Version | Previous Version | Text Only | Print | Product List | Glossary On
Versions: 1 2 3 4 5 6 7 8 9 10 11 12 13 14 15 16 17
375
FTUS45 KTFX 172339
TAFHLN
TAF
KHLN 172339Z 1800/1824 VRB06KT 4SM -SN BR SCT015 OVC025
      TEMPO 1800/1804 24010G18KT 3/4SM -SN BLSN BKN010
     FM180400 29014G22KT 6SM -SN SCT020 OVC035
     FM180900 34011KT 4SM -SN BR SCT015 OVC025 PROB30 1810/1815 1SM
      -SN BR BKN012
     FM181500 36011KT 3SM -SN BR SCT010 OVC020 PROB30 1820/1824
      3/4SM -SN BR BKN010=

USA.gov is the U.S. government's official web portal to all federal, state and local government web resources and services.